Marble Falls' Hourly Summary for Sunday, March 19, 2017
Hour Temp
(f)
RH
(%)
Solar Rad.
(MJ/m2)
Rainfall
(in)
Wind
(mph)
3/19/2017 12:00 AM 68 88 0 0 8.21
3/19/2017 1:00 AM 68 100 0 0 8.43
3/19/2017 2:00 AM 67 100 0 0 8.43
3/19/2017 3:00 AM 66 100 0 0 7.65
3/19/2017 4:00 AM 65 100 0 0 3.31
3/19/2017 5:00 AM 63 100 0 0 1.38
3/19/2017 6:00 AM 65 100 0 0 3.4
3/19/2017 7:00 AM 65 100 0.01 0 3.4
3/19/2017 8:00 AM 65 100 0.37 0 1.69
3/19/2017 9:00 AM 67 100 1.09 0 3.78
3/19/2017 10:00 AM 69 86 1.89 0 5.84
3/19/2017 11:00 AM 73 65 2.48 0 5.84
3/19/2017 12:00 PM 76 55 2.88 0 6.66
3/19/2017 1:00 PM 79 46 2.88 0 7.06
3/19/2017 2:00 PM 81 40 1.72 0 7.08
3/19/2017 3:00 PM 82 36 1.98 0 7.84
3/19/2017 4:00 PM 83 34 1.98 0 8.72
3/19/2017 5:00 PM 83 34 1.55 0 8.72
3/19/2017 6:00 PM 83 36 1.55 0 8.26
3/19/2017 7:00 PM 82 39 0.82 0 8.04
3/19/2017 8:00 PM 80 47 0.19 0 5.28
3/19/2017 9:00 PM 75 58 0 0 4.02
3/19/2017 10:00 PM 72 69 0 0 2.44
3/19/2017 11:00 PM 69 74 0 0 1.59
Data Summary 72 71 21.39 0.00 5.71